createdAt,value
2022-09-01T00:01:50.106Z,95664.09
2022-09-01T00:04:20.812Z,95662.94
2022-09-01T00:06:49.102Z,95659.41
2022-09-01T00:09:19.863Z,95666.84
2022-09-01T00:11:50.594Z,95667.31
2022-09-01T00:14:29.615Z,95665.69
2022-09-01T00:17:02.457Z,95664.09
2022-09-01T00:19:29.922Z,95666.47
2022-09-01T00:21:57.296Z,95660.91
2022-09-01T00:24:24.776Z,95658.19
2022-09-01T00:26:52.201Z,95657.75
2022-09-01T00:29:19.340Z,95655.00
2022-09-01T00:31:46.494Z,95654.22
2022-09-01T00:34:16.003Z,95660.50
2022-09-01T00:36:44.063Z,95649.88
2022-09-01T00:39:11.367Z,95644.38
2022-09-01T00:41:40.145Z,95643.94
2022-09-01T00:44:11.657Z,95650.22
2022-09-01T00:46:49.844Z,95652.53
2022-09-01T00:49:31.666Z,95653.25
2022-09-01T00:52:30.139Z,95662.63
2022-09-01T00:55:00.062Z,95654.75
2022-09-01T00:57:27.721Z,95655.53
2022-09-01T01:00:04.797Z,95651.56
2022-09-01T01:02:31.943Z,95651.50
2022-09-01T01:04:59.651Z,95656.53
2022-09-01T01:07:29.211Z,95656.09
2022-09-01T01:09:56.771Z,95655.31
2022-09-01T01:12:23.686Z,95649.81
2022-09-01T01:14:52.137Z,95647.44
2022-09-01T01:17:21.612Z,95653.69
2022-09-01T01:19:54.562Z,95657.22
2022-09-01T01:22:55.384Z,95656.81
2022-09-01T01:25:22.392Z,95653.28
2022-09-01T01:27:50.375Z,95652.81
2022-09-01T01:30:18.396Z,95643.78
2022-09-01T01:32:48.292Z,95646.53
2022-09-01T01:35:17.406Z,95643.00
2022-09-01T01:37:46.408Z,95640.63
2022-09-01T01:40:17.805Z,95638.56
2022-09-01T01:42:46.283Z,95630.63
2022-09-01T01:45:15.084Z,95641.13
2022-09-01T01:47:42.208Z,95633.19
2022-09-01T01:50:09.745Z,95630.78
2022-09-01T01:52:37.308Z,95635.13
2022-09-01T01:55:05.399Z,95637.59
2022-09-01T01:57:32.606Z,95637.19
2022-09-01T01:59:59.421Z,95642.19
2022-09-01T02:02:26.605Z,95627.94
2022-09-01T02:04:54.445Z,95629.34
2022-09-01T02:07:21.359Z,95631.31
2022-09-01T02:09:48.888Z,95633.56
2022-09-01T02:12:15.972Z,95630.75
2022-09-01T02:14:42.997Z,95641.28
2022-09-01T02:17:09.923Z,95633.41
2022-09-01T02:19:36.941Z,95623.59
2022-09-01T02:22:04.295Z,95636.84
2022-09-01T02:24:31.169Z,95633.69
2022-09-01T02:26:58.496Z,95630.94
2022-09-01T02:29:25.677Z,95626.16
2022-09-01T02:31:53.932Z,95630.03
2022-09-01T02:34:22.758Z,95635.88
2022-09-01T02:36:53.161Z,95640.91
2022-09-01T02:39:30.731Z,95634.53
2022-09-01T02:41:57.544Z,95633.75
2022-09-01T02:44:28.466Z,95625.88
2022-09-01T02:46:57.020Z,95633.66
2022-09-01T02:49:25.849Z,95634.78
2022-09-01T02:51:55.311Z,95635.13
2022-09-01T02:54:22.936Z,95631.97
2022-09-01T02:56:50.105Z,95636.53
2022-09-01T02:59:19.395Z,95625.50
2022-09-01T03:01:46.449Z,95621.50
2022-09-01T03:04:14.564Z,95624.94
2022-09-01T03:06:41.900Z,95622.88
2022-09-01T03:09:12.736Z,95620.84
2022-09-01T03:11:42.678Z,95620.06
2022-09-01T03:14:09.827Z,95615.72
2022-09-01T03:16:37.638Z,95616.88
2022-09-01T03:19:05.994Z,95612.97
2022-09-01T03:21:33.862Z,95612.63
2022-09-01T03:24:00.740Z,95616.97
2022-09-01T03:26:28.374Z,95613.09
2022-09-01T03:28:55.360Z,95608.75
2022-09-01T03:31:22.820Z,95608.75
2022-09-01T03:33:51.341Z,95603.63
2022-09-01T03:36:27.718Z,95607.50
2022-09-01T03:38:55.580Z,95610.16
2022-09-01T03:41:26.460Z,95608.91
2022-09-01T03:43:53.365Z,95612.34
2022-09-01T03:46:21.123Z,95611.09
2022-09-01T03:48:54.203Z,95610.19
2022-09-01T03:51:23.084Z,95601.88
2022-09-01T03:53:52.373Z,95605.66
2022-09-01T03:56:19.240Z,95606.34
2022-09-01T03:58:47.481Z,95605.47
2022-09-01T04:01:16.925Z,95602.63
2022-09-01T04:03:45.704Z,95602.06
2022-09-01T04:06:12.527Z,95597.28
2022-09-01T04:08:39.545Z,95598.75
2022-09-01T04:11:15.679Z,95607.22
2022-09-01T04:13:43.212Z,95603.22
2022-09-01T04:16:21.093Z,95600.81
2022-09-01T04:18:48.384Z,95610.19
2022-09-01T04:21:15.382Z,95602.31
2022-09-01T04:23:42.394Z,95603.47
2022-09-01T04:26:12.209Z,95599.16
2022-09-01T04:28:50.369Z,95605.31
2022-09-01T04:31:20.232Z,95607.22
2022-09-01T04:33:52.950Z,95610.31
2022-09-01T04:36:24.633Z,95612.59
2022-09-01T04:38:56.907Z,95609.88
2022-09-01T04:41:31.842Z,95603.97
2022-09-01T04:44:02.344Z,95605.88
2022-09-01T04:46:29.290Z,95608.59
2022-09-01T04:48:56.854Z,95612.16
2022-09-01T04:51:24.721Z,95610.56
2022-09-01T04:53:52.827Z,95610.22
2022-09-01T04:56:20.798Z,95613.06
2022-09-01T04:58:59.019Z,95611.91
2022-09-01T05:01:27.242Z,95610.44
2022-09-01T05:03:54.265Z,95611.69
2022-09-01T05:06:44.011Z,95615.75
2022-09-01T05:09:13.028Z,95616.69
2022-09-01T05:12:00.227Z,95615.66
2022-09-01T05:14:29.566Z,95611.84
2022-09-01T05:16:58.646Z,95616.78
2022-09-01T05:19:27.791Z,95609.44
2022-09-01T05:21:56.235Z,95611.13
2022-09-01T05:24:23.131Z,95608.16
2022-09-01T05:26:50.001Z,95609.84
2022-09-01T05:29:17.180Z,95612.72
2022-09-01T05:31:50.245Z,95619.06
2022-09-01T05:34:19.073Z,95614.84
2022-09-01T05:36:47.321Z,95619.63
2022-09-01T05:39:14.172Z,95611.94
2022-09-01T05:41:41.239Z,95613.63
2022-09-01T05:44:09.830Z,95613.34
2022-09-01T05:46:38.449Z,95612.31
2022-09-01T05:49:07.184Z,95616.38
2022-09-01T05:51:46.415Z,95621.59
2022-09-01T05:54:22.143Z,95619.41
2022-09-01T05:56:50.159Z,95614.50
2022-09-01T05:59:23.747Z,95610.66
2022-09-01T06:01:54.528Z,95617.84
2022-09-01T06:04:23.419Z,95617.94
2022-09-01T06:07:10.209Z,95616.88
2022-09-01T06:09:48.126Z,95620.16
2022-09-01T06:12:18.802Z,95615.94
2022-09-01T06:14:47.904Z,95612.94
2022-09-01T06:17:19.473Z,95610.69
2022-09-01T06:19:46.458Z,95613.19
2022-09-01T06:22:13.663Z,95619.19
2022-09-01T06:24:40.892Z,95620.78
2022-09-01T06:27:10.947Z,95622.81
2022-09-01T06:29:38.717Z,95618.94
2022-09-01T06:32:09.942Z,95619.38
2022-09-01T06:34:42.819Z,95620.22
2022-09-01T06:37:11.603Z,95624.31
2022-09-01T06:39:38.437Z,95625.19
2022-09-01T06:42:06.374Z,95632.78
2022-09-01T06:44:45.208Z,95621.88
2022-09-01T06:47:12.075Z,95624.38
2022-09-01T06:49:39.012Z,95621.41
2022-09-01T06:52:10.437Z,95624.69
2022-09-01T06:54:37.482Z,95622.09
2022-09-01T06:59:52.661Z,95630.84
2022-09-01T07:02:22.276Z,95628.50
2022-09-01T07:08:16.400Z,95639.00
2022-09-01T07:16:41.844Z,95651.84
2022-09-01T07:19:19.525Z,95651.13
2022-09-01T07:22:08.673Z,95662.22
2022-09-01T07:24:39.489Z,95653.16
2022-09-01T07:27:36.034Z,95660.31
2022-09-01T07:30:08.483Z,95660.31
2022-09-01T07:32:47.599Z,95660.78
2022-09-01T07:35:19.156Z,95665.53
2022-09-01T07:43:50.506Z,95660.38
2022-09-01T07:46:37.081Z,95660.78
2022-09-01T07:51:53.365Z,95662.34
2022-09-01T07:54:20.897Z,95661.19
2022-09-01T07:56:48.722Z,95661.19
2022-09-01T07:59:16.542Z,95667.91
2022-09-01T08:01:50.673Z,95663.94
2022-09-01T08:04:18.190Z,95669.03
2022-09-01T08:06:45.034Z,95674.44
2022-09-01T08:09:25.264Z,95672.50
2022-09-01T08:12:02.252Z,95671.78
2022-09-01T08:14:35.467Z,95678.53
2022-09-01T08:17:16.841Z,95671.22
2022-09-01T08:19:45.228Z,95676.53
2022-09-01T08:22:18.623Z,95681.41
2022-09-01T08:24:53.806Z,95682.88
2022-09-01T08:27:21.523Z,95685.91
2022-09-01T08:29:48.763Z,95685.69
2022-09-01T08:32:15.768Z,95687.34
2022-09-01T08:34:42.658Z,95690.28
2022-09-01T08:37:09.512Z,95691.53
2022-09-01T08:39:37.426Z,95695.47
2022-09-01T08:42:39.307Z,95694.00
2022-09-01T08:45:06.194Z,95698.84
2022-09-01T08:47:49.210Z,95692.22
2022-09-01T08:50:22.080Z,95695.16
2022-09-01T08:53:26.747Z,95709.53
2022-09-01T08:55:58.645Z,95706.53
2022-09-01T08:58:28.385Z,95704.31
2022-09-01T09:01:41.713Z,95698.47
2022-09-01T09:04:37.908Z,95698.53
2022-09-01T09:07:15.018Z,95699.06
2022-09-01T09:09:53.815Z,95693.69
2022-09-01T09:12:24.258Z,95694.13
2022-09-01T09:15:21.587Z,95690.63
2022-09-01T09:18:00.482Z,95685.03
2022-09-01T09:20:28.805Z,95688.63
2022-09-01T09:22:56.269Z,95686.72
2022-09-01T09:25:22.967Z,95678.28
2022-09-01T09:28:00.523Z,95678.56
2022-09-01T09:30:28.679Z,95678.09
2022-09-01T09:33:30.836Z,95674.44
2022-09-01T09:35:47.446Z,95678.88
2022-09-01T09:38:14.188Z,95675.63
2022-09-01T09:41:16.041Z,95680.75
2022-09-01T09:43:58.652Z,95668.00
2022-09-01T09:46:34.466Z,95671.47
2022-09-01T09:49:09.652Z,95673.38
2022-09-01T09:51:38.019Z,95670.19
2022-09-01T09:54:18.415Z,95674.16
2022-09-01T09:56:46.751Z,95672.75
2022-09-01T09:59:53.689Z,95665.34
2022-09-01T10:02:31.357Z,95668.72
2022-09-01T10:04:59.502Z,95671.34
2022-09-01T10:07:28.417Z,95670.25
2022-09-01T10:09:58.007Z,95667.59
2022-09-01T10:12:26.016Z,95661.31
2022-09-01T10:15:04.723Z,95668.38
2022-09-01T10:17:43.278Z,95658.91
2022-09-01T10:20:20.179Z,95656.03
2022-09-01T10:22:50.633Z,95655.88
2022-09-01T10:25:24.813Z,95653.63
2022-09-01T10:27:58.386Z,95653.41
2022-09-01T10:30:26.263Z,95651.22
2022-09-01T10:33:07.970Z,95656.00
2022-09-01T10:35:48.839Z,95657.16
2022-09-01T10:38:28.107Z,95659.94
2022-09-01T10:40:57.168Z,95652.44
2022-09-01T10:43:36.257Z,95650.09
2022-09-01T10:46:15.643Z,95650.50
2022-09-01T10:48:51.836Z,95646.59
2022-09-01T10:51:28.860Z,95651.00
2022-09-01T10:54:02.676Z,95647.19
2022-09-01T10:56:44.688Z,95647.28
2022-09-01T10:59:32.737Z,95653.28
2022-09-01T11:02:27.706Z,95647.44
2022-09-01T11:05:17.122Z,95645.63
2022-09-01T11:08:01.457Z,95642.59
2022-09-01T11:10:42.483Z,95645.47
2022-09-01T11:13:34.039Z,95637.97
2022-09-01T11:19:29.397Z,95638.53
2022-09-01T11:22:26.439Z,95640.19
2022-09-01T11:25:38.709Z,95632.72
2022-09-01T11:28:23.628Z,95632.78
2022-09-01T11:30:56.355Z,95639.53
2022-09-01T11:33:32.322Z,95639.16
2022-09-01T11:36:22.425Z,95636.03
2022-09-01T11:39:12.448Z,95634.53
2022-09-01T11:41:40.135Z,95624.66
2022-09-01T11:44:15.342Z,95625.47
2022-09-01T11:46:43.118Z,95632.28
2022-09-01T11:49:43.389Z,95627.50
2022-09-01T11:52:16.325Z,95614.47
2022-09-01T11:54:44.436Z,95618.41
2022-09-01T11:57:22.663Z,95620.41
2022-09-01T11:59:50.017Z,95616.81
2022-09-01T12:02:26.220Z,95618.44
2022-09-01T12:04:54.812Z,95623.19
2022-09-01T12:07:39.904Z,95623.59
2022-09-01T12:10:19.817Z,95624.78
2022-09-01T12:12:47.252Z,95629.91
2022-09-01T12:15:24.247Z,95618.03
2022-09-01T12:17:52.777Z,95618.41
2022-09-01T12:20:28.690Z,95613.28
2022-09-01T12:22:56.481Z,95613.69
2022-09-01T12:25:34.003Z,95622.00
2022-09-01T12:28:03.802Z,95617.25
2022-09-01T12:30:32.066Z,95623.19
2022-09-01T12:35:47.074Z,95616.84
2022-09-01T12:38:19.546Z,95624.38
2022-09-01T12:40:57.959Z,95619.22
2022-09-01T12:43:40.213Z,95612.50
2022-09-01T12:46:08.595Z,95620.38
2022-09-01T12:48:41.476Z,95615.63
2022-09-01T12:51:26.576Z,95617.25
2022-09-01T12:54:04.541Z,95609.69
2022-09-01T12:56:37.251Z,95625.13
2022-09-01T12:59:25.112Z,95608.09
2022-09-01T13:02:33.796Z,95614.44
2022-09-01T13:05:36.161Z,95612.06
2022-09-01T13:08:09.865Z,95603.72
2022-09-01T13:10:43.494Z,95593.00
2022-09-01T13:13:11.973Z,95596.56
2022-09-01T13:15:44.809Z,95595.75
2022-09-01T13:18:11.730Z,95601.69
2022-09-01T13:20:38.669Z,95597.72
2022-09-01T13:23:05.779Z,95594.53
2022-09-01T13:25:32.605Z,95594.47
2022-09-01T13:27:59.622Z,95591.28
2022-09-01T13:30:26.448Z,95596.34
2022-09-01T13:35:40.189Z,95597.50
2022-09-01T13:38:07.114Z,95602.63
2022-09-01T13:40:34.541Z,95601.06
2022-09-01T13:43:01.840Z,95610.22
2022-09-01T13:45:33.886Z,95607.16
2022-09-01T13:48:20.310Z,95606.75
2022-09-01T13:53:39.463Z,95597.72
2022-09-01T13:56:06.771Z,95590.59
2022-09-01T13:58:33.629Z,95582.72
2022-09-01T14:01:08.871Z,95584.34
2022-09-01T14:03:40.038Z,95585.53
2022-09-01T14:06:11.493Z,95585.97
2022-09-01T14:08:41.526Z,95578.03
2022-09-01T14:11:08.576Z,95577.22
2022-09-01T14:13:35.292Z,95570.88
2022-09-01T14:16:02.561Z,95568.91
2022-09-01T14:18:29.717Z,95573.66
2022-09-01T14:20:56.544Z,95579.97
2022-09-01T14:23:25.629Z,95569.28
2022-09-01T14:25:52.595Z,95565.31
2022-09-01T14:28:22.304Z,95566.53
2022-09-01T14:33:17.596Z,95566.91
2022-09-01T14:35:48.147Z,95558.97
2022-09-01T14:38:15.218Z,95553.41
2022-09-01T14:40:44.215Z,95556.16
2022-09-01T14:43:11.933Z,95547.78
2022-09-01T14:45:39.470Z,95544.97
2022-09-01T14:48:06.754Z,95545.28
2022-09-01T14:50:33.710Z,95547.19
2022-09-01T14:53:02.944Z,95536.38
2022-09-01T14:55:32.000Z,95538.59
2022-09-01T14:58:02.171Z,95535.69
2022-09-01T15:00:30.439Z,95540.22
2022-09-01T15:02:57.841Z,95538.81
2022-09-01T15:05:25.280Z,95540.56
2022-09-01T15:07:53.483Z,95539.47
2022-09-01T15:10:26.067Z,95533.25
2022-09-01T15:12:55.129Z,95528.28
2022-09-01T15:15:22.507Z,95530.38
2022-09-01T15:17:49.634Z,95527.53
2022-09-01T15:20:16.571Z,95530.31
2022-09-01T15:22:43.474Z,95529.94
2022-09-01T15:25:10.475Z,95536.97
2022-09-01T15:27:41.372Z,95532.97
2022-09-01T15:30:09.484Z,95533.69
2022-09-01T15:32:36.404Z,95531.03
2022-09-01T15:35:03.373Z,95538.25
2022-09-01T15:37:30.302Z,95540.31
2022-09-01T15:39:57.251Z,95536.56
2022-09-01T15:42:24.301Z,95544.53
2022-09-01T15:44:51.242Z,95546.41
2022-09-01T15:47:18.191Z,95541.97
2022-09-01T15:49:45.070Z,95541.78
2022-09-01T15:52:11.900Z,95542.59
2022-09-01T15:54:39.564Z,95537.66
2022-09-01T15:57:06.670Z,95538.28
2022-09-01T15:59:35.762Z,95531.91
2022-09-01T16:02:02.740Z,95530.78
2022-09-01T16:04:29.695Z,95537.28
2022-09-01T16:06:56.713Z,95531.84
2022-09-01T16:09:23.881Z,95530.25
2022-09-01T16:11:50.620Z,95535.53
2022-09-01T16:14:17.480Z,95527.25
2022-09-01T16:17:01.988Z,95529.84
2022-09-01T16:19:34.713Z,95535.78
2022-09-01T16:22:13.176Z,95539.03
2022-09-01T16:24:46.485Z,95538.25
2022-09-01T16:27:20.587Z,95541.91
2022-09-01T16:29:55.674Z,95540.31
2022-09-01T16:32:22.748Z,95537.91
2022-09-01T16:34:51.996Z,95543.50
2022-09-01T16:37:29.598Z,95545.44
2022-09-01T16:40:21.483Z,95545.47
2022-09-01T16:42:57.846Z,95546.59
2022-09-01T16:45:42.276Z,95539.81
2022-09-01T16:48:26.232Z,95537.47
2022-09-01T16:51:02.525Z,95532.63
2022-09-01T16:53:39.094Z,95536.13
2022-09-01T16:56:29.946Z,95531.41
2022-09-01T17:02:17.595Z,95539.75
2022-09-01T17:04:53.538Z,95534.94
2022-09-01T17:07:37.538Z,95538.56
2022-09-01T17:10:35.912Z,95541.03
2022-09-01T17:13:29.934Z,95545.47
2022-09-01T17:16:09.009Z,95546.69
2022-09-01T17:18:45.920Z,95547.59
2022-09-01T17:21:18.230Z,95549.69
2022-09-01T17:24:05.414Z,95549.53
2022-09-01T17:26:32.757Z,95558.41
2022-09-01T17:29:26.032Z,95550.69
2022-09-01T17:32:11.526Z,95552.63
2022-09-01T17:34:59.960Z,95554.56
2022-09-01T17:37:29.340Z,95559.97
2022-09-01T17:40:09.618Z,95559.97
2022-09-01T17:43:03.992Z,95565.75
2022-09-01T17:45:45.597Z,95573.09
2022-09-01T17:48:20.745Z,95577.59
2022-09-01T17:51:14.498Z,95568.56
2022-09-01T17:53:58.292Z,95572.16
2022-09-01T17:56:41.343Z,95574.44
2022-09-01T17:59:10.849Z,95575.53
2022-09-01T18:01:42.178Z,95585.25
2022-09-01T18:04:42.250Z,95583.94
2022-09-01T18:07:50.263Z,95592.31
2022-09-01T18:10:40.953Z,95585.41
2022-09-01T18:13:30.480Z,95584.84
2022-09-01T18:16:10.418Z,95590.53
2022-09-01T18:18:43.087Z,95604.09
2022-09-01T18:21:11.703Z,95592.88
2022-09-01T18:23:45.380Z,95598.16
2022-09-01T18:26:18.973Z,95603.50
2022-09-01T18:28:46.312Z,95616.25
2022-09-01T18:31:34.068Z,95614.47
2022-09-01T18:34:06.881Z,95614.50
2022-09-01T18:37:03.342Z,95625.84
2022-09-01T18:40:01.408Z,95627.19
2022-09-01T18:42:48.115Z,95625.78
2022-09-01T18:45:20.943Z,95624.81
2022-09-01T18:48:00.059Z,95628.97
2022-09-01T18:50:29.679Z,95628.75
2022-09-01T18:53:31.049Z,95628.53
2022-09-01T18:56:21.042Z,95628.69
2022-09-01T18:58:57.321Z,95637.19
2022-09-01T19:01:35.240Z,95633.84
2022-09-01T19:04:30.965Z,95632.69
2022-09-01T19:07:22.715Z,95622.78
2022-09-01T19:10:10.416Z,95626.19
2022-09-01T19:12:52.895Z,95620.50
2022-09-01T19:15:33.795Z,95626.94
2022-09-01T19:18:13.030Z,95625.97
2022-09-01T19:20:45.859Z,95629.31
2022-09-01T19:23:21.927Z,95629.50
2022-09-01T19:25:51.561Z,95621.81
2022-09-01T19:28:35.906Z,95627.94
2022-09-01T19:31:27.497Z,95626.91
2022-09-01T19:34:04.397Z,95628.22
2022-09-01T19:36:56.686Z,95625.66
2022-09-01T19:39:42.796Z,95632.91
2022-09-01T19:42:28.332Z,95633.97
2022-09-01T19:45:06.964Z,95621.63
2022-09-01T19:48:03.546Z,95624.28
2022-09-01T19:51:12.560Z,95626.41
2022-09-01T19:53:48.415Z,95621.75
2022-09-01T19:56:27.556Z,95626.31
2022-09-01T19:59:19.494Z,95621.09
2022-09-01T20:02:09.098Z,95626.84
2022-09-01T20:04:57.028Z,95628.34
2022-09-01T20:07:46.649Z,95621.16
2022-09-01T20:11:02.263Z,95624.19
2022-09-01T20:14:03.105Z,95621.00
2022-09-01T20:16:38.135Z,95619.41
2022-09-01T20:19:12.016Z,95620.88
2022-09-01T20:21:44.007Z,95613.00
2022-09-01T20:24:35.522Z,95609.41
2022-09-01T20:27:11.387Z,95604.28
2022-09-01T20:29:49.894Z,95600.28
2022-09-01T20:32:24.254Z,95609.66
2022-09-01T20:34:58.872Z,95604.88
2022-09-01T20:37:37.203Z,95612.63
2022-09-01T20:40:27.718Z,95610.16
2022-09-01T20:43:18.184Z,95607.31
2022-09-01T20:45:45.694Z,95601.84
2022-09-01T20:48:15.278Z,95612.72
2022-09-01T20:51:13.556Z,95604.38
2022-09-01T20:53:51.257Z,95615.22
2022-09-01T20:56:50.149Z,95612.84
2022-09-01T20:59:36.777Z,95615.84
2022-09-01T21:02:20.859Z,95622.78
2022-09-01T21:05:06.114Z,95614.47
2022-09-01T21:08:17.916Z,95610.03
2022-09-01T21:10:53.412Z,95606.84
2022-09-01T21:13:45.257Z,95617.31
2022-09-01T21:16:36.670Z,95607.44
2022-09-01T21:19:07.306Z,95606.63
2022-09-01T21:21:46.741Z,95601.84
2022-09-01T21:24:13.894Z,95604.13
2022-09-01T21:26:43.531Z,95603.69
2022-09-01T21:29:36.249Z,95610.97
2022-09-01T21:32:03.986Z,95605.50
2022-09-01T21:34:30.841Z,95599.59
2022-09-01T21:36:57.574Z,95601.53
2022-09-01T21:39:24.492Z,95599.94
2022-09-01T21:41:51.309Z,95604.97
2022-09-01T21:44:18.088Z,95591.63
2022-09-01T21:46:45.006Z,95598.25
2022-09-01T21:49:11.818Z,95596.19
2022-09-01T21:51:38.666Z,95589.13
2022-09-01T21:54:05.562Z,95593.00
2022-09-01T21:56:32.372Z,95587.06
2022-09-01T21:58:59.235Z,95582.75
2022-09-01T22:01:27.119Z,95580.72
2022-09-01T22:03:54.062Z,95575.91
2022-09-01T22:06:20.779Z,95582.53
2022-09-01T22:08:47.480Z,95575.47
2022-09-01T22:11:15.639Z,95573.53
2022-09-01T22:13:42.809Z,95571.38
2022-09-01T22:16:09.585Z,95563.19
2022-09-01T22:18:36.336Z,95551.75
2022-09-01T22:21:08.573Z,95567.03
2022-09-01T22:23:35.864Z,95559.19
2022-09-01T22:26:03.146Z,95562.25
2022-09-01T22:28:30.043Z,95562.59
2022-09-01T22:30:56.891Z,95555.22
2022-09-01T22:33:24.270Z,95557.47
2022-09-01T22:35:53.581Z,95556.34
2022-09-01T22:38:21.511Z,95554.31
2022-09-01T22:40:51.907Z,95555.91
2022-09-01T22:43:19.382Z,95553.50
2022-09-01T22:45:48.079Z,95553.50
2022-09-01T22:48:16.566Z,95552.69
2022-09-01T22:50:45.175Z,95551.13
2022-09-01T22:53:13.162Z,95541.66
2022-09-01T22:55:40.720Z,95548.41
2022-09-01T22:58:10.214Z,95543.13
2022-09-01T23:00:37.916Z,95542.34
2022-09-01T23:03:05.618Z,95543.47
2022-09-01T23:05:32.328Z,95543.03
2022-09-01T23:07:59.178Z,95548.50
2022-09-01T23:10:26.116Z,95541.44
2022-09-01T23:12:52.811Z,95538.69
2022-09-01T23:15:19.996Z,95538.25
2022-09-01T23:17:46.824Z,95541.31
2022-09-01T23:20:14.849Z,95543.28
2022-09-01T23:22:43.765Z,95540.88
2022-09-01T23:25:13.472Z,95529.50
2022-09-01T23:27:40.525Z,95531.41
2022-09-01T23:30:10.176Z,95533.38
2022-09-01T23:32:37.344Z,95525.16
2022-09-01T23:35:04.829Z,95525.50
2022-09-01T23:37:31.719Z,95521.50
2022-09-01T23:39:58.643Z,95520.72
2022-09-01T23:42:25.475Z,95523.00
2022-09-01T23:44:52.194Z,95522.19
2022-09-01T23:47:19.048Z,95513.53
2022-09-01T23:49:45.861Z,95516.63
2022-09-01T23:52:12.631Z,95514.22
2022-09-01T23:54:39.340Z,95518.13
2022-09-01T23:57:06.200Z,95514.13
2022-09-01T23:59:33.005Z,95517.22
